Time,TemperatureF,DewpointF,PressureIn,WindDirection,WindDirectionDegrees,WindSpeedMPH,WindSpeedGustMPH,Humidity,HourlyPrecipIn,Conditions,Clouds,dailyrainin,SoftwareType,DateUTC
2013-02-05 00:01:00,43.0,-99.9,-100.00,SE,128,0.0,5.0,-999,-99.99,,,-99.99,,2013-02-05 07:01:00,
2013-02-05 00:12:00,43.0,-99.9,-100.00,SE,128,0.0,5.0,-999,-99.99,,,-99.99,,2013-02-05 07:12:00,
2013-02-05 00:40:00,45.0,-99.9,-100.00,West,280,0.0,0.0,-999,-99.99,,,-99.99,,2013-02-05 07:40:00,
2013-02-05 01:22:00,45.0,-99.9,-100.00,West,280,0.0,0.0,-999,-99.99,,,-99.99,,2013-02-05 08:22:00,
2013-02-05 01:32:00,45.0,-99.9,-100.00,West,280,0.0,0.0,-999,-99.99,,,-99.99,,2013-02-05 08:32:00,
2013-02-05 01:52:00,44.0,-99.9,-100.00,South,189,2.0,2.0,-999,-99.99,,,-99.99,,2013-02-05 08:52:00,
2013-02-05 02:02:00,42.0,-99.9,-100.00,East,92,3.0,5.0,-999,-99.99,,,-99.99,,2013-02-05 09:02:00,
2013-02-05 02:12:00,42.0,-99.9,-100.00,East,92,3.0,5.0,-999,-99.99,,,-99.99,,2013-02-05 09:12:00,
2013-02-05 02:22:00,42.0,-99.9,-100.00,East,92,3.0,5.0,-999,-99.99,,,-99.99,,2013-02-05 09:22:00,
2013-02-05 04:00:00,36.0,-99.9,-100.00,ENE,60,1.0,7.0,-999,-99.99,,,-99.99,,2013-02-05 11:00:00,
2013-02-05 04:22:00,36.0,-99.9,-100.00,East,92,2.0,5.0,-999,-99.99,,,-99.99,,2013-02-05 11:22:00,
2013-02-05 04:32:00,36.0,-99.9,-100.00,East,92,2.0,5.0,-999,-99.99,,,-99.99,,2013-02-05 11:32:00,
2013-02-05 04:42:00,36.0,-99.9,-100.00,East,92,2.0,5.0,-999,-99.99,,,-99.99,,2013-02-05 11:42:00,
2013-02-05 04:53:00,36.0,-99.9,-100.00,ENE,60,1.0,7.0,-999,-99.99,,,-99.99,,2013-02-05 11:53:00,
2013-02-05 06:02:00,36.0,-99.9,-100.00,ESE,117,1.0,7.0,-999,-99.99,,,-99.99,,2013-02-05 13:02:00,
2013-02-05 06:12:00,36.0,-99.9,-100.00,ESE,117,1.0,7.0,-999,-99.99,,,-99.99,,2013-02-05 13:12:00,
2013-02-05 06:22:00,36.0,-99.9,-100.00,ESE,117,1.0,7.0,-999,-99.99,,,-99.99,,2013-02-05 13:22:00,
2013-02-05 06:50:00,37.0,-99.9,-100.00,SE,126,4.0,4.0,-999,-99.99,,,-99.99,,2013-02-05 13:50:00,
2013-02-05 07:22:00,35.0,-99.9,-100.00,SW,233,0.0,1.0,-999,-99.99,,,-99.99,,2013-02-05 14:22:00,
2013-02-05 07:32:00,37.0,-99.9,-100.00,SE,126,4.0,4.0,-999,-99.99,,,-99.99,,2013-02-05 14:32:00,
2013-02-05 07:42:00,37.0,-99.9,-100.00,SE,126,4.0,4.0,-999,-99.99,,,-99.99,,2013-02-05 14:42:00,
2013-02-05 08:22:00,35.0,-99.9,-100.00,East,92,3.0,5.0,-999,-99.99,,,-99.99,,2013-02-05 15:22:00,
2013-02-05 08:32:00,38.0,-99.9,-100.00,East,86,4.0,4.0,-999,-99.99,,,-99.99,,2013-02-05 15:32:00,
2013-02-05 08:42:00,38.0,-99.9,-100.00,East,86,4.0,4.0,-999,-99.99,,,-99.99,,2013-02-05 15:42:00,
2013-02-05 10:02:00,45.0,-99.9,-100.00,WNW,290,1.0,3.0,-999,-99.99,,,-99.99,,2013-02-05 17:02:00,
2013-02-05 10:12:00,45.0,-99.9,-100.00,WNW,290,1.0,3.0,-999,-99.99,,,-99.99,,2013-02-05 17:12:00,
2013-02-05 11:20:00,54.0,-99.9,-100.00,WNW,290,2.0,2.0,-999,-99.99,,,-99.99,,2013-02-05 18:20:00,
2013-02-05 11:52:00,53.0,-99.9,-100.00,NNW,336,3.0,3.0,-999,-99.99,,,-99.99,,2013-02-05 18:52:00,
2013-02-05 12:00:00,57.0,-99.9,-100.00,NNW,329,0.0,2.0,-999,-99.99,,,-99.99,,2013-02-05 19:00:00,
2013-02-05 12:02:00,54.0,-99.9,-100.00,WNW,290,2.0,2.0,-999,-99.99,,,-99.99,,2013-02-05 19:02:00,
2013-02-05 12:11:00,54.0,-99.9,-100.00,WNW,290,2.0,2.0,-999,-99.99,,,-99.99,,2013-02-05 19:11:00,
2013-02-05 12:32:00,57.0,-99.9,-100.00,NNW,329,0.0,2.0,-999,-99.99,,,-99.99,,2013-02-05 19:32:00,
2013-02-05 12:42:00,57.0,-99.9,-100.00,NNW,329,0.0,2.0,-999,-99.99,,,-99.99,,2013-02-05 19:42:00,
2013-02-05 12:52:00,57.0,-99.9,-100.00,NNW,329,0.0,2.0,-999,-99.99,,,-99.99,,2013-02-05 19:52:00,
2013-02-05 15:02:00,64.0,-99.9,-100.00,WSW,238,3.0,5.0,-999,-99.99,,,-99.99,,2013-02-05 22:02:00,
2013-02-05 15:12:00,64.0,-99.9,-100.00,WSW,238,3.0,5.0,-999,-99.99,,,-99.99,,2013-02-05 22:12:00,
2013-02-05 15:22:00,64.0,-99.9,-100.00,WSW,238,3.0,5.0,-999,-99.99,,,-99.99,,2013-02-05 22:22:00,
2013-02-05 17:53:00,63.0,-99.9,-100.00,ESE,117,0.0,3.0,-999,-99.99,,,-99.99,,2013-02-06 00:53:00,
2013-02-05 18:02:00,63.0,-99.9,-100.00,ESE,117,0.0,3.0,-999,-99.99,,,-99.99,,2013-02-06 01:02:00,
2013-02-05 20:22:00,51.0,-99.9,-100.00,SE,125,3.0,4.0,-999,-99.99,,,-99.99,,2013-02-06 03:22:00,
2013-02-05 20:33:00,51.0,-99.9,-100.00,SE,125,3.0,4.0,-999,-99.99,,,-99.99,,2013-02-06 03:33:00,
2013-02-05 21:40:00,46.0,-99.9,-100.00,South,174,1.0,1.0,-999,-99.99,,,-99.99,,2013-02-06 04:40:00,
2013-02-05 21:52:00,47.0,-99.9,-100.00,ENE,57,2.0,4.0,-999,-99.99,,,-99.99,,2013-02-06 04:52:00,
2013-02-05 22:02:00,47.0,-99.9,-100.00,ENE,57,2.0,4.0,-999,-99.99,,,-99.99,,2013-02-06 05:02:00,
2013-02-05 22:22:00,46.0,-99.9,-100.00,South,174,1.0,1.0,-999,-99.99,,,-99.99,,2013-02-06 05:22:00,
2013-02-05 22:32:00,46.0,-99.9,-100.00,South,174,1.0,1.0,-999,-99.99,,,-99.99,,2013-02-06 05:32:00,
2013-02-05 23:02:00,47.0,-99.9,-100.00,SE,143,0.0,0.0,-999,-99.99,,,-99.99,,2013-02-06 06:02:00,
2013-02-05 23:11:00,47.0,-99.9,-100.00,SE,143,0.0,0.0,-999,-99.99,,,-99.99,,2013-02-06 06:11:00,
2013-02-05 23:22:00,45.0,-99.9,-100.00,South,174,1.0,1.0,-999,-99.99,,,-99.99,,2013-02-06 06:22:00,
2013-02-05 23:32:00,46.0,-99.9,-100.00,ESE,113,3.0,6.0,-999,-99.99,,,-99.99,,2013-02-06 06:32:00,
2013-02-05 23:42:00,46.0,-99.9,-100.00,ESE,113,3.0,6.0,-999,-99.99,,,-99.99,,2013-02-06 06:42:00,
2013-02-05 23:52:00,46.0,-99.9,-100.00,ESE,113,3.0,6.0,-999,-99.99,,,-99.99,,2013-02-06 06:52:00,